EPZG/IEG METAR and TAF weather

Enter ICAO airport designator
Station Type Date Time Source
EPZG METAR 2019/06/18 16:30 UTC NOAA

EPZG 181630Z 09009KT 060V130 CAVOK 27/12 Q1016


Station Type Date Time Source
EPZG Decoded METAR 2019/06/18 16:30 UTC NOAA

Zielona Gora, Poland (EPZG) 51-56N 015-32E 192M
Jun 18, 2019 - 12:30 PM EDT / 2019.06.18 1630 UTC
Wind: from the E (090 degrees) at 10 MPH (9 KT) (direction variable):0
Visibility: greater than 7 mile(s):0
Temperature: 80 F (27 C)
Dew Point: 53 F (12 C)
Relative Humidity: 39%
Pressure (altimeter): 30.00 in. Hg (1016 hPa)
ob: EPZG 181630Z 09009KT 060V130 CAVOK 27/12 Q1016
cycle: 16

Station Type Date Time Source
EPZG TAF 2012/06/28 21:49 UTC NOAA

TAF EPZG 282000Z 2821/2906 VRB02KT CAVOK
TEMPO 2823/2904 5000 BR PROB30 2900/2904 1500 BR BKN005

Example: see airport list